Southwest Georgia Regional Airport
KABY : now visible

Airfield :











YOU CAN JOIN US ON...

 
LOGIN :

Register | Disclaimer

   EN    FR    IT 

 









Legend :    VFR   Marginal VFR   IFR   Intensive IFR   Very Intensive IFR
Visi :
Ceiling :
>= 8 km
>= 3000ft
5 to 8 km
1000 to 3000 ft
1500m to 5 km
500 to 1000 ft
800 to 1500m
200 to 500 ft
< 800m
< 200 ft
Symbols :   Thunderstorms  Fog  Heavy snow  Heavy precipitations  Wind > 20 kt






- Airport Elevation : 197 ft
- IATA code : ABY


KABY - Southwest Georgia Regional

CURRENT METAR :
  • 262353Z AUTO 06005KT 10SM BKN041 25/21 A3005 RMK AO2 SLP173 T02500211 10300 20244 53008

EXPIRED METARs :
  • 262253Z 00000KT 10SM FEW041 BKN050 BKN060 27/21 A3003 RMK AO2 SLP169 T02670211
  • 262153Z 08004KT 10SM FEW049 SCT055 29/21 A3003 RMK AO2 SLP166 T02890206

TAF KABY
Valid from the 27 at 00:00 until the 28 at 00:00 UTC


262320Z 2700/2724 00000KT P6SM FEW040 BKN050
FM270800 08006KT 6SM BR BKN025
FM270900 08006KT 4SM BR BKN010
FM271400 08007KT P6SM BKN025
FM271800 09009KT P6SM OVC025
PROB30 2718/2724 TSRA OVC025CB
KZJX FIR / North America



MET'MAP, your aeronautical weather chart ! - Copyright ORBIFLY December 2007 - Disclaimer

ORBIFLY MET'MAP TEAM :

Programming & Development : Alexandra Zaïnal
Concept & original design : Baudouin d'Aumeries
Assistance for programming : Marc-Olivier Méhu
Technical & hardware support : Manuel Goepfert

Contact : metmap@orbifly.com




SOURCES & CREDITS :

   NOAA       Earth
Advisory